Time;durP1;ratioP1;P1;durP2;ratioP2;P2;SDS_P1;SDS_P2;PMS_P1;PMS_P2;Temp;Humidity;BMP_temperature;BMP_pressure;BME280_temperature;BME280_humidity;BME280_pressure;Samples;Min_cycle;Max_cycle;Signal;HPM_P1;HPM_P2
2022/09/14 00:01:18;;;;;;;5.63;4.67;;;15.10;88.80;;;15.37;58.19;94877.28;6177195;23;20413;-58
2022/09/14 00:03:47;;;;;;;5.33;3.70;;;15.10;89.20;;;15.37;58.51;94879.94;6177797;23;20425;-55
2022/09/14 00:06:15;;;;;;;3.43;3.33;;;15.10;89.40;;;15.37;58.17;94886.03;6177488;23;20656;-59
2022/09/14 00:08:43;;;;;;;4.00;3.70;;;15.10;89.30;;;15.36;58.36;94879.09;6177964;23;20495;-57
2022/09/14 00:11:11;;;;;;;3.80;3.50;;;15.00;89.20;;;15.33;58.09;94886.56;6177900;23;20484;-57
2022/09/14 00:13:40;;;;;;;4.50;3.63;;;15.00;89.20;;;15.30;58.32;94889.53;6177416;23;20453;-56
2022/09/14 00:16:08;;;;;;;3.57;3.27;;;15.00;89.30;;;15.26;58.40;94897.00;6176956;23;20405;-58
2022/09/14 00:18:35;;;;;;;3.60;3.33;;;15.00;89.90;;;15.22;58.65;94893.03;6177624;23;20988;-58
2022/09/14 00:21:06;;;;;;;3.57;3.23;;;14.90;90.10;;;15.19;58.96;94899.47;6178076;23;20417;-56
2022/09/14 00:23:34;;;;;;;6.43;3.53;;;14.90;90.30;;;15.18;58.84;94879.31;6178004;23;20460;-55
2022/09/14 00:26:03;;;;;;;4.30;3.90;;;14.90;90.30;;;15.16;58.62;94894.53;6177594;23;20398;-55
2022/09/14 00:28:30;;;;;;;4.70;3.67;;;14.90;90.40;;;15.11;59.17;94891.56;6177585;23;20468;-57
2022/09/14 00:30:58;;;;;;;3.90;3.60;;;14.80;90.50;;;15.08;59.00;94888.41;6177571;23;20405;-55
2022/09/14 00:33:25;;;;;;;3.97;3.57;;;14.80;90.70;;;15.05;59.10;94892.22;6177577;23;20405;-54
2022/09/14 00:35:52;;;;;;;4.30;4.00;;;14.80;90.70;;;15.02;59.12;94892.56;6177650;23;20405;-57
2022/09/14 00:38:21;;;;;;;4.67;4.13;;;14.70;90.50;;;14.98;59.15;94892.06;6177680;23;20864;-58
2022/09/14 00:40:57;;;;;;;3.67;3.37;;;14.70;90.80;;;14.94;59.25;94890.75;6176993;23;20458;-57
2022/09/14 00:43:25;;;;;;;6.20;3.83;;;14.70;91.00;;;14.93;59.44;94899.66;6177552;23;20464;-57
2022/09/14 00:45:52;;;;;;;2.97;2.87;;;14.60;91.20;;;14.92;59.68;94900.69;6177169;23;20409;-54
2022/09/14 00:48:20;;;;;;;3.87;3.63;;;14.60;91.30;;;14.90;59.26;94900.00;6177334;23;20402;-56
2022/09/14 00:50:47;;;;;;;4.20;3.90;;;14.60;91.30;;;14.89;59.39;94893.06;6176800;23;20906;-57
2022/09/14 00:53:14;;;;;;;3.97;3.77;;;14.60;91.30;;;14.88;59.79;94904.63;6177424;23;20468;-57
2022/09/14 00:55:43;;;;;;;4.40;3.80;;;14.60;91.60;;;14.86;59.85;94910.09;6177249;23;20428;-57
2022/09/14 00:58:10;;;;;;;3.83;3.53;;;14.60;91.90;;;14.86;59.71;94909.28;6177472;23;20737;-58
2022/09/14 01:00:37;;;;;;;3.93;3.30;;;14.60;91.80;;;14.84;59.73;94912.09;6177247;23;20418;-56
2022/09/14 01:03:04;;;;;;;3.93;3.73;;;14.60;92.00;;;14.84;59.79;94913.91;6176836;23;20531;-57
2022/09/14 01:05:42;;;;;;;7.83;3.30;;;14.60;92.10;;;14.84;60.12;94919.19;6176799;23;20484;-56
2022/09/14 01:08:25;;;;;;;5.03;4.53;;;14.50;92.20;;;14.83;60.53;94899.84;6177742;23;20396;-57
2022/09/14 01:11:09;;;;;;;4.20;3.90;;;14.50;92.30;;;14.84;60.86;94905.94;6176848;23;20892;-57
2022/09/14 01:13:41;;;;;;;6.20;3.57;;;14.50;92.60;;;14.81;60.19;94915.06;6177533;23;20487;-55
2022/09/14 01:16:14;;;;;;;4.27;3.50;;;14.50;92.40;;;14.79;59.98;94910.94;6177505;23;20444;-58
2022/09/14 01:18:45;;;;;;;4.03;3.73;;;14.50;92.40;;;14.78;59.99;94917.19;6177177;23;20915;-57
2022/09/14 01:21:15;;;;;;;4.23;4.00;;;14.50;92.50;;;14.77;60.29;94902.31;6177349;23;20394;-56
2022/09/14 01:23:47;;;;;;;4.20;3.90;;;14.50;92.60;;;14.76;60.36;94904.13;6176909;23;20851;-58
2022/09/14 01:26:48;;;;;;;4.53;3.60;;;14.50;92.80;;;14.78;60.67;94906.59;6177234;23;20394;-57
2022/09/14 01:29:17;;;;;;;6.30;4.17;;;14.50;92.80;;;14.76;60.45;94898.00;6177089;23;20472;-56
2022/09/14 01:31:50;;;;;;;4.00;3.60;;;14.50;92.90;;;14.74;60.04;94897.38;6177159;23;20472;-56
2022/09/14 01:34:22;;;;;;;4.37;3.90;;;14.50;92.70;;;14.73;60.17;94903.63;6176701;23;20437;-56
2022/09/14 01:36:54;;;;;;;4.60;3.77;;;14.40;92.80;;;14.73;60.60;94901.00;6177101;23;20390;-57
2022/09/14 01:39:22;;;;;;;3.60;3.40;;;14.40;93.00;;;14.72;60.44;94902.81;6176730;23;20421;-58
2022/09/14 01:41:50;;;;;;;3.50;3.30;;;14.40;93.10;;;14.70;60.45;94910.09;6177028;23;20448;-55
2022/09/14 01:44:21;;;;;;;5.10;3.40;;;14.40;93.00;;;14.70;60.16;94908.28;6176773;23;20493;-55
2022/09/14 01:46:51;;;;;;;4.17;3.77;;;14.40;93.10;;;14.69;60.86;94909.25;6176816;23;20402;-54
2022/09/14 01:49:21;;;;;;;3.63;3.30;;;14.40;93.40;;;14.68;60.46;94912.88;6176358;23;20429;-56
2022/09/14 01:51:50;;;;;;;4.10;3.90;;;14.40;93.40;;;14.68;60.47;94917.38;6177577;23;20465;-57
2022/09/14 01:54:23;;;;;;;3.27;3.03;;;14.40;93.30;;;14.66;60.73;94914.88;6176036;23;21005;-53
2022/09/14 01:56:53;;;;;;;3.40;3.00;;;14.40;93.30;;;14.65;60.63;94907.09;6176477;23;20655;-57
2022/09/14 01:59:23;;;;;;;4.00;3.70;;;14.30;93.50;;;14.63;60.57;94901.16;6176232;23;20425;-59
2022/09/14 02:01:56;;;;;;;7.43;3.50;;;14.40;93.50;;;14.60;60.51;94907.59;6176125;23;20393;-55
2022/09/14 02:04:29;;;;;;;6.60;3.50;;;14.30;93.50;;;14.59;60.80;94903.25;6177343;23;20756;-57
2022/09/14 02:06:57;;;;;;;8.63;3.47;;;14.30;93.70;;;14.57;60.78;94901.78;6176743;23;20390;-55
2022/09/14 02:09:25;;;;;;;5.43;3.47;;;14.30;94.10;;;14.55;61.05;94907.25;6176804;23;20487;-56
2022/09/14 02:11:54;;;;;;;3.53;3.23;;;14.30;93.90;;;14.52;61.03;94904.91;6176893;23;20405;-57
2022/09/14 02:14:22;;;;;;;4.03;3.53;;;14.20;93.80;;;14.52;60.92;94918.16;6176309;23;20425;-56
2022/09/14 02:16:50;;;;;;;6.80;3.53;;;14.20;93.80;;;14.48;61.31;94911.50;6176944;23;20402;-56
2022/09/14 02:19:17;;;;;;;3.70;3.50;;;14.20;93.90;;;14.46;61.12;94914.31;6176119;23;20428;-53
2022/09/14 02:21:44;;;;;;;4.30;4.00;;;14.20;94.00;;;14.42;61.30;94912.16;6176743;23;20405;-54
2022/09/14 02:24:12;;;;;;;3.40;3.10;;;14.10;94.20;;;14.40;61.19;94903.56;6175531;23;20453;-56
2022/09/14 02:26:40;;;;;;;4.10;3.70;;;14.10;94.20;;;14.39;61.60;94907.19;6176584;23;20466;-56
2022/09/14 02:29:07;;;;;;;5.07;4.57;;;14.10;94.40;;;14.35;61.80;94912.81;6176018;23;20737;-57
2022/09/14 02:31:45;;;;;;;7.17;5.13;;;14.10;94.70;;;14.33;62.06;94920.09;6176931;23;20516;-57
2022/09/14 02:34:19;;;;;;;4.17;3.87;;;14.10;94.80;;;14.31;62.16;94908.84;6176402;23;20973;-55
2022/09/14 02:36:50;;;;;;;6.87;4.47;;;14.10;94.90;;;14.30;61.77;94911.66;6176225;23;20393;-56
2022/09/14 02:39:27;;;;;;;5.07;4.63;;;14.00;94.90;;;14.27;62.04;94914.63;6175937;23;20425;-56
2022/09/14 02:42:00;;;;;;;4.30;3.90;;;14.00;94.90;;;14.24;62.03;94926.34;6176140;23;20398;-58
2022/09/14 02:44:36;;;;;;;4.63;4.00;;;14.00;95.20;;;14.23;62.00;94913.28;6176234;23;20439;-55
2022/09/14 02:47:08;;;;;;;4.43;4.13;;;13.90;95.10;;;14.21;61.95;94913.44;6176344;23;20404;-52
2022/09/14 02:49:43;;;;;;;5.33;4.77;;;13.90;95.10;;;14.20;62.15;94914.44;6175998;23;20747;-54
2022/09/14 02:52:15;;;;;;;5.43;3.90;;;13.90;95.20;;;14.18;62.11;94910.31;6177072;23;20409;-55
2022/09/14 02:54:53;;;;;;;7.57;4.27;;;13.90;95.20;;;14.15;62.37;94912.25;6176355;23;20483;-58
2022/09/14 02:57:20;;;;;;;4.40;3.90;;;13.90;95.30;;;14.14;62.05;94912.44;6176440;23;20436;-56
2022/09/14 02:59:47;;;;;;;7.00;4.73;;;13.90;95.30;;;14.13;62.16;94913.44;6175595;23;20428;-58
2022/09/14 03:02:16;;;;;;;7.00;4.57;;;13.90;95.40;;;14.12;62.16;94919.69;6175525;23;20410;-55
2022/09/14 03:04:43;;;;;;;8.13;5.67;;;13.80;95.50;;;14.09;62.09;94920.84;6176027;23;20495;-55
2022/09/14 03:07:10;;;;;;;7.97;5.27;;;13.80;95.50;;;14.06;62.41;94915.06;6176105;23;20467;-58
2022/09/14 03:09:38;;;;;;;6.77;4.90;;;13.80;95.70;;;14.04;62.38;94911.75;6176288;23;20969;-56
2022/09/14 03:12:05;;;;;;;5.90;4.50;;;13.80;95.70;;;14.01;62.30;94914.72;6176248;23;20410;-57
2022/09/14 03:14:33;;;;;;;6.23;4.60;;;13.80;95.80;;;13.97;62.44;94909.75;6177483;23;20491;-57
2022/09/14 03:17:00;;;;;;;12.73;4.93;;;13.70;95.70;;;13.93;62.63;94913.69;6177592;23;20728;-55
2022/09/14 03:19:28;;;;;;;11.20;5.40;;;13.70;96.00;;;13.91;62.38;94910.38;6177604;23;20557;-56
2022/09/14 03:21:56;;;;;;;5.63;5.00;;;13.70;95.90;;;13.88;62.81;94908.06;6177479;23;20409;-57
2022/09/14 03:24:23;;;;;;;11.50;5.13;;;13.70;96.10;;;13.86;62.78;94909.19;6177461;23;20448;-57
2022/09/14 03:26:51;;;;;;;7.23;4.70;;;13.60;96.10;;;13.81;62.80;94912.31;6177610;23;20950;-55
2022/09/14 03:29:18;;;;;;;7.70;5.10;;;13.60;96.20;;;13.79;63.14;94912.47;6178143;23;20531;-56
2022/09/14 03:31:45;;;;;;;7.63;5.20;;;13.60;96.30;;;13.77;62.86;94905.69;6177770;23;20413;-57
2022/09/14 03:34:12;;;;;;;11.10;5.47;;;13.50;96.20;;;13.75;63.12;94918.22;6177418;23;20487;-54
2022/09/14 03:36:41;;;;;;;9.13;4.80;;;13.50;96.20;;;13.73;62.92;94923.69;6177941;23;20402;-58
2022/09/14 03:39:08;;;;;;;13.70;5.30;;;13.50;96.50;;;13.70;63.09;94915.25;6177343;23;21051;-56
2022/09/14 03:41:35;;;;;;;6.90;5.07;;;13.50;96.40;;;13.69;63.20;94916.22;6177257;23;20402;-54
2022/09/14 03:44:03;;;;;;;6.47;4.97;;;13.40;96.40;;;13.66;63.48;94921.81;6177538;23;20449;-56
2022/09/14 03:46:30;;;;;;;5.53;5.00;;;13.40;96.80;;;13.63;63.25;94915.88;6177711;23;20401;-55
2022/09/14 03:48:57;;;;;;;6.90;4.30;;;13.40;96.70;;;13.60;63.58;94910.06;6176896;23;20429;-57
2022/09/14 03:51:25;;;;;;;5.47;5.07;;;13.40;97.00;;;13.57;63.60;94920.94;6177354;23;20398;-56
2022/09/14 03:53:53;;;;;;;8.00;6.03;;;13.30;96.90;;;13.56;63.46;94914.84;6177579;23;20425;-56
2022/09/14 03:56:22;;;;;;;6.83;5.30;;;13.30;97.00;;;13.55;63.63;94929.03;6177593;23;20460;-56
2022/09/14 03:58:49;;;;;;;5.97;5.40;;;13.30;97.20;;;13.54;63.89;94919.47;6177495;23;20476;-56
2022/09/14 04:01:20;;;;;;;5.07;4.50;;;13.30;97.30;;;13.53;64.07;94923.06;6177472;23;20464;-55
2022/09/14 04:03:47;;;;;;;13.07;5.90;;;13.30;97.30;;;13.52;64.34;94924.06;6177296;23;21053;-55
2022/09/14 04:06:15;;;;;;;7.43;5.47;;;13.30;97.60;;;13.52;63.90;94921.41;6177416;23;20410;-56
2022/09/14 04:08:43;;;;;;;8.83;4.30;;;13.30;97.60;;;13.51;63.85;94918.91;6177603;23;20425;-55
2022/09/14 04:11:14;;;;;;;8.90;5.97;;;13.30;97.40;;;13.48;63.83;94920.09;6177307;23;20468;-55
2022/09/14 04:13:41;;;;;;;6.30;5.70;;;13.30;97.50;;;13.49;64.41;94912.97;6177448;23;20517;-55
2022/09/14 04:16:08;;;;;;;8.50;6.10;;;13.20;97.50;;;13.49;64.10;94921.72;6177202;23;20456;-57
2022/09/14 04:18:36;;;;;;;8.20;6.13;;;13.30;97.60;;;13.48;64.28;94930.66;6176910;23;20950;-55
2022/09/14 04:21:05;;;;;;;10.33;5.90;;;13.20;97.50;;;13.48;64.45;94924.53;6176643;23;20402;-57
2022/09/14 04:23:32;;;;;;;11.37;6.53;;;13.20;97.70;;;13.49;64.20;94931.47;6176974;23;20454;-55
2022/09/14 04:25:59;;;;;;;5.77;5.27;;;13.20;97.70;;;13.48;64.23;94924.53;6176986;23;20405;-57
2022/09/14 04:28:28;;;;;;;8.13;6.40;;;13.20;97.80;;;13.48;64.24;94921.88;6176874;23;20421;-57
2022/09/14 04:30:57;;;;;;;7.60;5.73;;;13.20;97.70;;;13.51;64.44;94926.84;6177326;23;20433;-55
2022/09/14 04:33:24;;;;;;;10.73;6.00;;;13.20;97.70;;;13.51;64.04;94919.78;6177354;23;20460;-56
2022/09/14 04:36:00;;;;;;;8.53;5.80;;;13.30;97.70;;;13.53;64.09;94923.06;6176680;23;20402;-54
2022/09/14 04:38:27;;;;;;;6.10;5.43;;;13.30;97.60;;;13.53;63.82;94924.91;6177070;23;20488;-56
2022/09/14 04:40:55;;;;;;;8.60;4.93;;;13.30;97.50;;;13.53;63.82;94932.81;6177338;23;20755;-56
2022/09/14 04:43:22;;;;;;;5.90;5.40;;;13.30;97.40;;;13.52;63.62;94931.97;6177326;23;20503;-57
2022/09/14 04:45:51;;;;;;;6.00;5.40;;;13.30;97.30;;;13.52;63.80;94933.81;6177190;23;20401;-57
2022/09/14 04:48:18;;;;;;;9.97;6.00;;;13.30;97.40;;;13.53;63.75;94935.47;6176268;23;20402;-57
2022/09/14 04:50:46;;;;;;;5.50;5.00;;;13.30;97.40;;;13.55;63.62;94942.22;6175143;23;20410;-58
2022/09/14 04:53:13;;;;;;;13.60;5.70;;;13.30;97.50;;;13.58;64.15;94939.28;6175202;23;20410;-56
2022/09/14 04:55:41;;;;;;;9.00;5.97;;;13.40;97.70;;;13.63;63.77;94944.94;6174659;23;20405;-56
2022/09/14 04:58:08;;;;;;;10.17;6.80;;;13.40;97.60;;;13.69;63.65;94940.81;6174971;23;20464;-55
2022/09/14 05:00:36;;;;;;;6.47;5.83;;;13.40;97.90;;;13.75;63.39;94952.59;6175381;23;20429;-55
2022/09/14 05:03:05;;;;;;;16.17;6.47;;;13.50;97.50;;;13.88;63.49;94946.88;6175564;23;20468;-56
2022/09/14 05:05:37;;;;;;;6.97;6.00;;;13.60;97.50;;;14.08;63.17;94952.75;6175350;23;20511;-57
2022/09/14 05:08:04;;;;;;;12.50;6.57;;;13.80;97.20;;;14.20;62.42;94951.47;6175057;23;20397;-57
2022/09/14 05:10:31;;;;;;;14.30;6.30;;;13.90;96.90;;;14.32;62.33;94960.75;6174378;23;20433;-55
2022/09/14 05:12:59;;;;;;;15.13;6.80;;;14.00;96.70;;;14.46;62.02;94959.31;6174446;23;20401;-55
2022/09/14 05:15:26;;;;;;;10.83;6.33;;;14.20;96.50;;;14.61;61.52;94959.56;6173969;23;20923;-56
2022/09/14 05:17:53;;;;;;;8.17;5.90;;;14.30;96.20;;;14.70;61.48;94963.88;6174173;23;20657;-57
2022/09/14 05:20:22;;;;;;;17.40;6.60;;;14.40;95.90;;;14.74;61.12;94966.19;6174426;23;20422;-55
2022/09/14 05:22:50;;;;;;;17.80;6.10;;;14.50;95.90;;;14.75;61.12;94963.38;6174137;23;20464;-57
2022/09/14 05:25:17;;;;;;;26.83;8.03;;;14.50;95.70;;;14.76;60.88;94957.09;6176162;23;20453;-58
2022/09/14 05:27:45;;;;;;;12.73;7.20;;;14.50;95.70;;;14.79;61.14;94966.53;6176641;23;20405;-56
2022/09/14 05:30:12;;;;;;;18.10;7.80;;;14.50;95.70;;;14.82;60.99;94966.19;6176224;23;20499;-58
2022/09/14 05:32:40;;;;;;;13.80;6.57;;;14.50;95.70;;;14.86;60.92;94968.34;6174902;23;20409;-57
2022/09/14 05:35:08;;;;;;;19.00;6.47;;;14.60;95.60;;;14.91;61.12;94967.06;6176040;23;20441;-58
2022/09/14 05:37:37;;;;;;;15.30;6.50;;;14.60;95.60;;;14.94;60.85;94969.38;6176064;23;20902;-55
2022/09/14 05:40:05;;;;;;;15.27;6.73;;;14.60;95.40;;;14.98;60.74;94971.53;6176720;23;20499;-56
2022/09/14 05:42:33;;;;;;;12.33;7.10;;;14.70;95.50;;;15.09;60.66;94977.47;6176991;23;20488;-56
2022/09/14 05:45:00;;;;;;;15.23;6.40;;;14.80;95.50;;;15.24;60.60;94978.47;6177341;23;20449;-55
2022/09/14 05:47:29;;;;;;;12.33;6.77;;;14.90;95.50;;;15.45;60.49;94990.41;6176901;23;20437;-57
2022/09/14 05:49:56;;;;;;;9.30;5.90;;;15.10;95.60;;;15.68;60.14;94987.91;6176165;23;20433;-55
2022/09/14 05:52:24;;;;;;;12.97;6.40;;;15.20;95.30;;;15.93;59.69;94986.03;6175990;23;20429;-55
2022/09/14 05:54:52;;;;;;;8.73;5.57;;;15.40;95.00;;;16.19;59.15;94984.94;6176261;23;20818;-54
2022/09/14 05:57:20;;;;;;;15.83;8.27;;;15.70;94.70;;;16.45;58.72;94979.38;6176335;23;20883;-55
2022/09/14 05:59:47;;;;;;;10.93;5.27;;;16.00;94.90;;;16.72;58.19;94983.38;6176904;23;20422;-54
2022/09/14 06:02:14;;;;;;;7.20;5.77;;;16.30;94.20;;;17.00;57.69;94980.25;6176789;23;20907;-55
2022/09/14 06:04:41;;;;;;;11.73;6.80;;;16.50;93.80;;;17.26;57.28;94987.03;6176220;23;20457;-57
2022/09/14 06:07:09;;;;;;;12.63;5.80;;;16.80;93.30;;;17.48;56.68;94975.53;6176360;23;20417;-54
2022/09/14 06:09:36;;;;;;;9.30;6.37;;;17.00;92.90;;;17.74;55.81;94975.13;6176667;23;20426;-56
2022/09/14 06:12:05;;;;;;;9.00;5.77;;;17.20;92.50;;;18.03;56.17;94967.38;6176649;23;20410;-56
2022/09/14 06:14:33;;;;;;;11.60;5.47;;;17.50;92.60;;;18.35;55.65;94979.50;6176492;23;20416;-57
2022/09/14 06:17:01;;;;;;;8.60;6.37;;;17.80;92.10;;;18.62;54.45;94966.47;6176320;23;20409;-58
2022/09/14 06:19:29;;;;;;;9.00;7.53;;;18.10;91.50;;;18.81;53.90;94971.22;6176919;23;20414;-56
2022/09/14 06:21:56;;;;;;;14.77;6.03;;;18.30;90.30;;;19.01;53.39;94972.47;6176605;23;20413;-55
2022/09/14 06:24:23;;;;;;;9.30;5.80;;;18.50;90.30;;;19.26;53.07;94973.75;6176184;23;20449;-57
2022/09/14 06:26:51;;;;;;;9.17;5.57;;;18.70;90.20;;;19.53;52.81;94969.50;6176579;23;20416;-56
2022/09/14 06:29:19;;;;;;;8.33;6.10;;;19.00;89.50;;;19.80;52.05;94972.38;6176374;23;20421;-56
2022/09/14 06:31:46;;;;;;;17.13;5.50;;;19.20;88.10;;;20.04;51.67;94970.28;6176885;23;20480;-55
2022/09/14 06:34:14;;;;;;;15.83;5.60;;;19.50;86.80;;;20.28;51.22;94981.50;6176102;23;20962;-56
2022/09/14 06:36:41;;;;;;;10.37;5.20;;;19.70;85.90;;;20.53;50.49;94971.16;6176285;23;20908;-53
2022/09/14 06:39:09;;;;;;;8.10;4.87;;;19.90;84.70;;;20.76;50.29;94966.31;6176370;23;20476;-56
2022/09/14 06:41:36;;;;;;;9.47;5.50;;;20.20;83.40;;;20.99;49.37;94969.66;6176792;23;20406;-56
2022/09/14 06:44:04;;;;;;;9.50;4.77;;;20.40;81.70;;;21.16;49.09;94973.59;6176572;23;20477;-56
2022/09/14 06:46:33;;;;;;;5.23;4.57;;;20.60;80.40;;;21.41;48.85;94970.34;6176616;23;20409;-57
2022/09/14 06:49:04;;;;;;;8.37;5.17;;;20.80;80.60;;;21.73;48.57;94974.09;6177629;23;20413;-57
2022/09/14 06:51:32;;;;;;;7.37;4.50;;;21.00;80.20;;;22.04;48.19;94969.94;6177774;23;20397;-58
2022/09/14 06:54:00;;;;;;;5.23;4.03;;;21.40;79.50;;;22.37;47.94;94975.25;6178610;23;20425;-55
2022/09/14 06:56:28;;;;;;;5.50;3.40;;;21.70;77.90;;;22.72;46.80;94976.78;6177768;23;20969;-54
2022/09/14 06:58:55;;;;;;;12.13;4.30;;;22.00;76.60;;;23.07;46.82;94973.75;6177763;23;20512;-55
2022/09/14 07:01:22;;;;;;;12.10;4.83;;;22.40;75.90;;;23.41;45.45;94977.06;6177142;23;20437;-54
2022/09/14 07:03:51;;;;;;;5.90;3.07;;;22.70;74.10;;;23.75;44.84;94974.91;6176984;23;20449;-57
2022/09/14 07:06:21;;;;;;;4.50;3.60;;;23.10;72.10;;;24.08;44.35;94974.66;6177955;23;20410;-55
2022/09/14 07:08:48;;;;;;;6.00;3.70;;;23.40;71.50;;;24.37;43.98;94971.47;6178611;23;20516;-55
2022/09/14 07:11:17;;;;;;;9.53;3.70;;;23.70;70.30;;;24.64;44.03;94966.66;6177857;23;20444;-56
2022/09/14 07:13:45;;;;;;;10.37;6.00;;;24.00;68.70;;;24.85;43.33;94962.69;6178272;23;20425;-54
2022/09/14 07:16:13;;;;;;;9.43;4.30;;;24.20;66.70;;;25.01;42.70;94964.72;6178176;23;20464;-56
2022/09/14 07:18:40;;;;;;;9.17;3.80;;;24.30;66.30;;;25.30;42.66;94969.53;6177830;23;20500;-56
2022/09/14 07:21:11;;;;;;;6.00;4.00;;;24.60;66.30;;;25.65;42.14;94966.91;6178154;23;20429;-55
2022/09/14 07:23:40;;;;;;;5.33;4.10;;;24.90;65.10;;;25.99;40.60;94964.53;6178185;23;20421;-56
2022/09/14 07:26:09;;;;;;;8.23;5.60;;;25.30;62.10;;;26.19;40.55;94968.75;6178331;23;20409;-55
2022/09/14 07:28:37;;;;;;;7.60;4.27;;;25.50;61.20;;;26.44;40.40;94961.22;6178261;23;20428;-57
2022/09/14 07:31:05;;;;;;;7.30;3.90;;;25.70;61.50;;;26.84;40.29;94952.34;6178445;23;20957;-57
2022/09/14 07:33:33;;;;;;;7.20;3.60;;;26.00;61.00;;;27.31;40.13;94955.91;6177184;23;20401;-57
2022/09/14 07:36:09;;;;;;;4.37;3.33;;;26.50;60.50;;;27.81;38.28;94952.47;6177740;23;20413;-56
2022/09/14 07:38:36;;;;;;;13.17;4.80;;;27.00;58.10;;;28.07;38.64;94955.59;6178467;23;20417;-56
2022/09/14 07:41:03;;;;;;;4.80;4.23;;;27.40;57.30;;;28.22;37.50;94960.41;6178008;23;20756;-56
2022/09/14 07:43:31;;;;;;;8.87;4.53;;;27.60;56.40;;;28.31;37.37;94956.22;6177909;23;20744;-55
2022/09/14 07:46:01;;;;;;;11.67;4.47;;;27.80;54.40;;;28.45;36.33;94956.66;6178157;23;20452;-55
2022/09/14 07:48:28;;;;;;;12.33;3.70;;;28.00;54.70;;;28.66;37.00;94948.84;6178270;23;20753;-56
2022/09/14 07:51:00;;;;;;;10.90;4.87;;;28.30;54.30;;;28.98;37.09;94959.78;6178278;23;20787;-54
2022/09/14 07:53:29;;;;;;;9.27;5.00;;;28.60;54.00;;;29.29;35.51;94955.53;6177649;23;20435;-55
2022/09/14 07:56:00;;;;;;;8.40;4.70;;;29.00;52.10;;;29.48;35.69;94960.59;6177904;23;20405;-55
2022/09/14 07:58:27;;;;;;;7.43;5.00;;;29.20;51.30;;;29.59;34.84;94962.34;6177321;23;20503;-57
2022/09/14 08:00:58;;;;;;;9.50;4.23;;;29.30;51.10;;;29.83;34.60;94965.53;6178251;23;20488;-57
2022/09/14 08:03:26;;;;;;;6.73;4.57;;;29.50;50.50;;;30.16;35.45;94962.81;6177712;23;20435;-57
2022/09/14 08:06:00;;;;;;;6.80;4.13;;;29.70;50.60;;;30.61;34.69;94964.19;6177798;23;20444;-55
2022/09/14 08:08:30;;;;;;;9.50;4.50;;;30.10;50.60;;;31.01;33.94;94953.78;6177475;23;20401;-58
2022/09/14 08:11:04;;;;;;;6.90;3.80;;;30.60;48.70;;;31.30;33.92;94956.06;6177958;23;20170;-57
2022/09/14 08:13:33;;;;;;;5.20;3.90;;;30.90;49.30;;;31.67;33.50;94955.84;6176974;23;20240;-57
2022/09/14 08:16:00;;;;;;;6.00;4.25;;;31.30;48.30;;;32.00;32.54;94953.66;6177106;23;20255;-56
2022/09/14 08:18:28;;;;;;;13.30;3.83;;;31.70;47.20;;;32.11;32.76;94949.88;6177501;23;20230;-56
2022/09/14 08:20:55;;;;;;;6.50;4.00;;;31.90;46.70;;;32.10;32.24;94947.44;6177637;23;20201;-57
2022/09/14 08:23:23;;;;;;;16.35;3.40;;;32.00;46.40;;;32.23;32.19;94948.78;6178261;23;20172;-55
2022/09/14 08:25:52;;;;;;;9.88;4.57;;;32.20;46.20;;;32.48;31.86;94945.19;6177107;23;20204;-56
2022/09/14 08:28:19;;;;;;;13.68;3.47;;;32.40;45.20;;;32.68;31.29;94947.88;6177129;23;20272;-55
2022/09/14 08:30:47;;;;;;;9.43;3.72;;;32.60;45.10;;;32.92;31.18;94949.97;6177387;23;20188;-56
2022/09/14 08:33:14;;;;;;;11.90;3.13;;;32.80;44.30;;;33.10;30.89;94951.22;6176400;23;20568;-56
2022/09/14 08:35:44;;;;;;;23.00;3.92;;;32.90;44.00;;;33.22;30.64;94949.03;6176399;23;20667;-56
2022/09/14 08:38:13;;;;;;;8.63;4.85;;;33.00;43.50;;;33.35;30.07;94947.56;6176984;23;20170;-58
2022/09/14 08:40:44;;;;;;;13.63;3.83;;;33.00;43.00;;;33.26;30.20;94946.53;6177499;23;20170;-53
2022/09/14 08:43:14;;;;;;;5.78;3.33;;;33.00;42.90;;;33.24;30.39;94938.63;6177092;23;20204;-59
2022/09/14 08:45:42;;;;;;;20.10;3.83;;;32.90;43.10;;;33.23;29.39;94937.03;6176847;23;20201;-56
2022/09/14 08:48:16;;;;;;;7.38;4.20;;;32.80;42.40;;;33.10;29.89;94934.88;6176846;23;20252;-57
2022/09/14 08:50:43;;;;;;;9.20;5.22;;;32.60;42.70;;;33.11;29.96;94927.50;6176986;23;20432;-56
2022/09/14 08:53:10;;;;;;;12.85;4.65;;;32.50;42.80;;;33.16;29.84;94931.03;6177283;23;20177;-57
2022/09/14 08:55:42;;;;;;;10.23;4.20;;;32.50;42.80;;;33.28;29.86;94932.63;6176662;23;20196;-55
2022/09/14 08:58:21;;;;;;;6.93;4.03;;;32.60;42.70;;;33.40;29.91;94931.19;6176823;23;20169;-54
2022/09/14 09:00:52;;;;;;;8.98;3.53;;;32.80;42.60;;;33.54;29.93;94931.38;6176610;23;20639;-56
2022/09/14 09:04:01;;;;;;;10.25;3.25;;;32.80;42.60;;;33.71;29.48;94931.00;6175921;23;20162;-58
2022/09/14 09:06:33;;;;;;;12.43;4.30;;;33.00;42.10;;;33.85;29.40;94933.06;6172452;23;20251;-54
2022/09/14 09:09:06;;;;;;;13.82;4.30;;;33.10;41.80;;;33.71;28.69;94927.41;6176052;23;20189;-57
2022/09/14 09:11:39;;;;;;;8.27;3.58;;;33.10;41.30;;;33.53;29.21;94924.28;6176314;23;20162;-53
2022/09/14 09:14:16;;;;;;;7.43;3.42;;;32.90;41.30;;;33.43;29.26;94924.34;6176966;23;20683;-55
2022/09/14 09:16:44;;;;;;;14.27;4.15;;;32.80;41.20;;;33.40;29.31;94924.91;6176087;23;20162;-57
2022/09/14 09:19:15;;;;;;;10.82;3.60;;;32.80;41.70;;;33.24;29.19;94919.56;6175887;23;20190;-56
2022/09/14 09:21:45;;;;;;;10.13;3.60;;;32.70;41.00;;;33.04;29.45;94916.91;6176998;23;20162;-54
2022/09/14 09:24:20;;;;;;;6.60;3.20;;;32.40;41.60;;;32.98;29.83;94910.69;6176210;23;20196;-56
2022/09/14 09:26:47;;;;;;;10.57;3.75;;;32.30;41.90;;;33.05;29.74;94903.03;6176476;23;20161;-55
2022/09/14 09:29:16;;;;;;;13.80;3.78;;;32.30;42.20;;;33.22;29.84;94912.78;6176326;23;20664;-56
2022/09/14 09:31:46;;;;;;;5.20;3.30;;;32.40;42.30;;;33.44;29.46;94914.28;6176441;23;20173;-55
2022/09/14 09:34:15;;;;;;;11.95;3.13;;;32.60;42.40;;;33.57;29.40;94908.16;6176000;23;20205;-55
2022/09/14 09:36:45;;;;;;;13.00;3.30;;;32.80;41.80;;;33.68;28.96;94903.44;6176861;23;20204;-58
2022/09/14 09:39:12;;;;;;;8.68;3.28;;;32.90;41.20;;;33.75;29.21;94909.41;6176376;23;20189;-55
2022/09/14 09:41:44;;;;;;;13.27;3.50;;;33.00;41.20;;;33.75;28.51;94906.69;6176178;23;20169;-54
2022/09/14 09:44:12;;;;;;;7.82;3.90;;;33.10;40.80;;;33.72;28.79;94905.34;6175923;23;20699;-57
2022/09/14 09:46:47;;;;;;;3.33;2.45;;;33.00;41.20;;;33.81;28.75;94902.81;6177132;23;20241;-56
2022/09/14 09:49:21;;;;;;;5.82;2.45;;;33.00;41.20;;;33.97;29.22;94898.03;6176602;23;20185;-57
2022/09/14 09:51:49;;;;;;;9.77;2.33;;;33.10;41.30;;;34.15;28.84;94896.50;6176156;23;20594;-57
2022/09/14 09:54:28;;;;;;;3.08;2.88;;;33.30;41.30;;;34.37;27.97;94895.19;6176098;23;20216;-57
2022/09/14 09:56:57;;;;;;;12.10;3.13;;;33.50;40.90;;;34.55;28.47;94882.69;6176766;23;20651;-57
2022/09/14 09:59:34;;;;;;;3.33;1.90;;;33.70;41.00;;;34.75;27.67;94879.75;6176793;23;20196;-57
2022/09/14 10:02:23;;;;;;;11.20;2.40;;;33.90;40.40;;;34.92;27.93;94873.78;6176757;23;20161;-57
2022/09/14 10:05:02;;;;;;;2.70;2.50;;;34.00;39.90;;;34.99;28.11;94870.69;6176206;23;20202;-56
2022/09/14 10:07:32;;;;;;;5.28;2.50;;;34.20;39.50;;;34.84;28.07;94860.75;6175899;23;20168;-55
2022/09/14 10:10:05;;;;;;;3.53;2.28;;;34.10;39.50;;;34.84;27.99;94852.56;6176509;23;20219;-53
2022/09/14 10:12:32;;;;;;;6.28;2.75;;;34.00;39.40;;;34.92;27.61;94848.34;6176166;23;20236;-56
2022/09/14 10:15:16;;;;;;;3.25;2.65;;;34.10;39.60;;;35.03;26.60;94851.75;6175720;23;20244;-55
2022/09/14 10:18:07;;;;;;;3.30;2.05;;;34.20;39.10;;;35.09;26.18;94853.31;6177156;23;20185;-55
2022/09/14 10:20:34;;;;;;;5.90;1.67;;;34.20;37.40;;;35.17;27.45;94844.47;6176597;23;20268;-58
2022/09/14 10:23:23;;;;;;;6.63;1.63;;;34.30;38.50;;;35.28;25.56;94847.88;6175057;23;20239;-57
2022/09/14 10:25:51;;;;;;;2.38;1.23;;;34.40;36.20;;;35.36;25.76;94855.41;6175898;23;20212;-55
2022/09/14 10:28:23;;;;;;;1.60;1.50;;;34.50;36.30;;;35.42;24.75;94850.69;6175821;23;20177;-56